Time;durP1;ratioP1;P1;durP2;ratioP2;P2;SDS_P1;SDS_P2;PMS_P1;PMS_P2;Temp;Humidity;BMP_temperature;BMP_pressure;BME280_temperature;BME280_humidity;BME280_pressure;Samples;Min_cycle;Max_cycle;Signal;HPM_P1;HPM_P2
2021/12/07 00:02:07;;;;;;;38.55;26.05;;;;;;;;;;4874518;29;20040;-76
2021/12/07 00:04:34;;;;;;;39.17;26.60;;;;;;;;;;4886345;29;20037;-76
2021/12/07 00:07:01;;;;;;;39.00;26.13;;;;;;;;;;4889578;29;20045;-76
2021/12/07 00:09:27;;;;;;;38.17;26.17;;;;;;;;;;4882169;29;20033;-76
2021/12/07 00:12:04;;;;;;;38.60;26.40;;;;;;;;;;4881759;29;20045;-76
2021/12/07 00:14:36;;;;;;;38.42;26.60;;;;;;;;;;4871673;29;20040;-77
2021/12/07 00:17:04;;;;;;;40.88;26.33;;;;;;;;;;4885725;29;20057;-76
2021/12/07 00:19:30;;;;;;;36.53;25.42;;;;;;;;;;4932853;29;20087;-77
2021/12/07 00:21:56;;;;;;;37.90;25.23;;;;;;;;;;4962878;28;20114;-77
2021/12/07 00:24:30;;;;;;;38.03;25.55;;;;;;;;;;4962060;29;20102;-78
2021/12/07 00:26:57;;;;;;;36.95;26.13;;;;;;;;;;4969224;29;20027;-76
2021/12/07 00:29:30;;;;;;;38.20;25.85;;;;;;;;;;4965714;28;20437;-77
2021/12/07 00:32:26;;;;;;;38.15;25.98;;;;;;;;;;4965980;28;20059;-76
2021/12/07 00:37:21;;;;;;;38.28;25.23;;;;;;;;;;4959487;29;20048;-76
2021/12/07 00:39:59;;;;;;;37.45;24.80;;;;;;;;;;4958866;29;20023;-77
2021/12/07 00:42:25;;;;;;;36.78;25.65;;;;;;;;;;4963424;29;20042;-77
2021/12/07 00:44:52;;;;;;;35.33;24.80;;;;;;;;;;4969186;28;20023;-77
2021/12/07 00:47:18;;;;;;;40.78;26.15;;;;;;;;;;4959703;29;20157;-76
2021/12/07 00:49:45;;;;;;;38.17;25.73;;;;;;;;;;4961508;29;20050;-77
2021/12/07 00:52:12;;;;;;;36.92;25.02;;;;;;;;;;4962692;29;20393;-77
2021/12/07 00:54:39;;;;;;;41.80;26.70;;;;;;;;;;4970858;29;20034;-77
2021/12/07 00:57:06;;;;;;;40.65;26.92;;;;;;;;;;4968121;29;20074;-76
2021/12/07 00:59:32;;;;;;;38.03;24.83;;;;;;;;;;4968130;29;20083;-76
2021/12/07 01:02:04;;;;;;;40.67;26.42;;;;;;;;;;4967549;29;20067;-76
2021/12/07 01:04:34;;;;;;;42.42;28.15;;;;;;;;;;4970566;29;20389;-76
2021/12/07 01:07:05;;;;;;;39.70;26.65;;;;;;;;;;4953738;29;20027;-76
2021/12/07 01:26:13;;;;;;;41.13;27.23;;;;;;;;;;4881130;29;20052;-76
2021/12/07 01:28:43;;;;;;;42.88;28.48;;;;;;;;;;4885430;29;20033;-77
2021/12/07 01:31:38;;;;;;;41.72;27.92;;;;;;;;;;4882533;29;20108;-76
2021/12/07 01:37:09;;;;;;;42.40;28.10;;;;;;;;;;4888926;29;20459;-77
2021/12/07 01:45:11;;;;;;;46.45;30.40;;;;;;;;;;4895557;29;20085;-77
2021/12/07 01:47:54;;;;;;;48.20;31.67;;;;;;;;;;4902887;29;20036;-76
2021/12/07 02:00:52;;;;;;;50.13;33.08;;;;;;;;;;4962407;29;20094;-76
2021/12/07 02:03:23;;;;;;;54.83;32.88;;;;;;;;;;4962854;29;20059;-77
2021/12/07 02:05:50;;;;;;;49.08;32.85;;;;;;;;;;4952320;29;20035;-76
2021/12/07 02:08:16;;;;;;;50.83;31.48;;;;;;;;;;4961932;29;20062;-77
2021/12/07 02:10:44;;;;;;;48.50;30.75;;;;;;;;;;4966162;29;20034;-77
2021/12/07 02:14:01;;;;;;;46.60;30.77;;;;;;;;;;4961157;29;20014;-77
2021/12/07 02:16:05;;;;;;;48.65;31.42;;;;;;;;;;4958092;29;20046;-76
2021/12/07 02:18:31;;;;;;;46.35;30.83;;;;;;;;;;4962148;29;20030;-76
2021/12/07 02:21:12;;;;;;;47.17;31.42;;;;;;;;;;4961050;29;20023;-76
2021/12/07 02:23:38;;;;;;;51.95;33.13;;;;;;;;;;4961553;28;20031;-76
2021/12/07 02:26:05;;;;;;;56.92;34.33;;;;;;;;;;4947898;29;20031;-76
2021/12/07 02:28:32;;;;;;;56.78;34.38;;;;;;;;;;4964857;29;20489;-76
2021/12/07 02:31:02;;;;;;;49.92;32.72;;;;;;;;;;4964196;29;20043;-76
2021/12/07 02:33:28;;;;;;;52.90;32.65;;;;;;;;;;4964447;29;20062;-76
2021/12/07 02:35:56;;;;;;;55.42;33.78;;;;;;;;;;4967702;29;20049;-76
2021/12/07 02:38:22;;;;;;;51.28;32.92;;;;;;;;;;4966781;29;20035;-77
2021/12/07 02:40:48;;;;;;;52.70;33.33;;;;;;;;;;4965963;29;20031;-76
2021/12/07 02:43:14;;;;;;;49.83;32.03;;;;;;;;;;4969911;29;20051;-76
2021/12/07 02:45:44;;;;;;;58.40;33.00;;;;;;;;;;4965210;29;20381;-76
2021/12/07 02:48:16;;;;;;;52.60;33.55;;;;;;;;;;4961577;29;20491;-76
2021/12/07 02:50:42;;;;;;;56.08;34.13;;;;;;;;;;4966683;28;20059;-76
2021/12/07 02:53:08;;;;;;;51.00;32.65;;;;;;;;;;4965494;28;20027;-76
2021/12/07 02:55:34;;;;;;;56.58;33.95;;;;;;;;;;4960744;29;20051;-77
2021/12/07 02:58:00;;;;;;;52.75;32.65;;;;;;;;;;4965099;29;20027;-76
2021/12/07 03:00:35;;;;;;;52.58;32.60;;;;;;;;;;4965247;29;20049;-77
2021/12/07 03:03:07;;;;;;;50.75;30.52;;;;;;;;;;4962799;29;20030;-76
2021/12/07 03:08:47;;;;;;;51.33;31.35;;;;;;;;;;4963265;29;20023;-76
2021/12/07 03:27:54;;;;;;;44.13;27.63;;;;;;;;;;4959479;28;20567;-77
2021/12/07 03:30:21;;;;;;;48.38;29.25;;;;;;;;;;4956405;29;20397;-77
2021/12/07 03:32:47;;;;;;;44.45;28.88;;;;;;;;;;4961695;29;20032;-77
2021/12/07 03:35:17;;;;;;;45.25;28.48;;;;;;;;;;4957549;28;20516;-77
2021/12/07 03:37:43;;;;;;;44.42;28.45;;;;;;;;;;4957711;29;20114;-77
2021/12/07 03:40:15;;;;;;;45.65;28.58;;;;;;;;;;4958383;29;20031;-77
2021/12/07 03:42:44;;;;;;;43.33;27.08;;;;;;;;;;4943499;29;20063;-76
2021/12/07 03:45:10;;;;;;;47.50;28.67;;;;;;;;;;4951920;29;20094;-76
2021/12/07 03:47:36;;;;;;;46.63;28.05;;;;;;;;;;4966046;29;20023;-77
2021/12/07 03:50:04;;;;;;;47.30;29.45;;;;;;;;;;4964063;29;20032;-77
2021/12/07 03:52:30;;;;;;;42.75;27.90;;;;;;;;;;4961785;29;20039;-76
2021/12/07 03:54:58;;;;;;;44.00;27.25;;;;;;;;;;4959391;28;20043;-76
2021/12/07 03:57:24;;;;;;;43.03;27.35;;;;;;;;;;4959241;29;20085;-76
2021/12/07 03:59:50;;;;;;;41.25;27.30;;;;;;;;;;4958009;28;20028;-76
2021/12/07 04:02:17;;;;;;;41.50;26.58;;;;;;;;;;4963943;28;20091;-77
2021/12/07 04:04:43;;;;;;;43.70;28.00;;;;;;;;;;4961842;29;20038;-77
2021/12/07 04:07:09;;;;;;;43.00;27.75;;;;;;;;;;4964009;29;20066;-76
2021/12/07 04:09:38;;;;;;;43.00;27.13;;;;;;;;;;4962919;29;20027;-76
2021/12/07 04:12:06;;;;;;;42.03;26.67;;;;;;;;;;4959010;29;20548;-77
2021/12/07 04:14:32;;;;;;;43.72;27.48;;;;;;;;;;4961627;29;20027;-76
2021/12/07 04:17:01;;;;;;;48.42;29.17;;;;;;;;;;4960118;28;20052;-76
2021/12/07 04:19:28;;;;;;;43.00;27.33;;;;;;;;;;4957557;29;20130;-77
2021/12/07 04:21:56;;;;;;;44.67;26.98;;;;;;;;;;4957394;29;20035;-77
2021/12/07 04:24:27;;;;;;;43.13;26.50;;;;;;;;;;4957687;29;20055;-76
2021/12/07 04:26:54;;;;;;;48.45;28.83;;;;;;;;;;4962476;28;20028;-76
2021/12/07 04:29:20;;;;;;;46.08;28.63;;;;;;;;;;4948052;29;20027;-76
2021/12/07 04:31:46;;;;;;;49.55;27.85;;;;;;;;;;4963550;29;20047;-77
2021/12/07 04:34:12;;;;;;;47.28;28.52;;;;;;;;;;4963649;29;20362;-77
2021/12/07 04:36:40;;;;;;;48.25;29.70;;;;;;;;;;4965849;29;20031;-76
2021/12/07 04:39:08;;;;;;;49.92;29.25;;;;;;;;;;4967594;28;20066;-76
2021/12/07 04:41:35;;;;;;;51.88;29.55;;;;;;;;;;4964694;29;20100;-77
2021/12/07 04:44:03;;;;;;;53.60;30.80;;;;;;;;;;4963733;28;20116;-77
2021/12/07 04:46:56;;;;;;;50.10;29.88;;;;;;;;;;4964343;28;20039;-77
2021/12/07 04:57:46;;;;;;;62.67;35.90;;;;;;;;;;4941559;29;20074;-77
2021/12/07 05:00:20;;;;;;;58.40;31.45;;;;;;;;;;4923264;29;20055;-77
2021/12/07 05:02:52;;;;;;;53.10;31.50;;;;;;;;;;4920989;29;20040;-77
2021/12/07 05:05:20;;;;;;;53.47;30.48;;;;;;;;;;4906948;29;20092;-77
2021/12/07 05:07:51;;;;;;;53.22;30.65;;;;;;;;;;4920249;29;20393;-77
2021/12/07 05:10:39;;;;;;;60.33;32.53;;;;;;;;;;4898870;29;20082;-77
2021/12/07 05:13:24;;;;;;;52.92;31.75;;;;;;;;;;4920274;29;20039;-77
2021/12/07 05:40:29;;;;;;;57.53;32.40;;;;;;;;;;4900734;29;20048;-77
2021/12/07 05:42:56;;;;;;;54.70;30.65;;;;;;;;;;4886337;29;20041;-76
2021/12/07 05:45:43;;;;;;;54.95;32.13;;;;;;;;;;4904137;29;20045;-76
2021/12/07 05:48:09;;;;;;;54.45;31.45;;;;;;;;;;4903633;29;20057;-78
2021/12/07 05:50:42;;;;;;;53.15;31.45;;;;;;;;;;4899244;29;20041;-77
2021/12/07 05:53:09;;;;;;;56.97;32.95;;;;;;;;;;4882232;29;20029;-77
2021/12/07 05:55:37;;;;;;;62.28;33.53;;;;;;;;;;4903384;29;20036;-78
2021/12/07 05:58:09;;;;;;;56.20;32.10;;;;;;;;;;4897687;29;20045;-77
2021/12/07 06:00:35;;;;;;;62.22;34.15;;;;;;;;;;4888471;29;20040;-77
2021/12/07 06:03:03;;;;;;;59.08;33.03;;;;;;;;;;4879047;29;20117;-77
2021/12/07 06:05:31;;;;;;;60.10;32.65;;;;;;;;;;4887060;29;20029;-76
2021/12/07 06:07:57;;;;;;;60.33;33.75;;;;;;;;;;4897469;29;20048;-76
2021/12/07 06:10:24;;;;;;;60.33;33.10;;;;;;;;;;4866205;29;20041;-77
2021/12/07 06:12:50;;;;;;;59.78;33.15;;;;;;;;;;4875350;29;20053;-76
2021/12/07 06:15:19;;;;;;;58.33;33.38;;;;;;;;;;4922552;29;20055;-77
2021/12/07 06:17:45;;;;;;;59.55;32.92;;;;;;;;;;4964169;29;20065;-77
2021/12/07 06:20:12;;;;;;;58.13;32.70;;;;;;;;;;4966114;29;20023;-76
2021/12/07 06:22:38;;;;;;;60.97;34.08;;;;;;;;;;4960971;29;20038;-77
2021/12/07 06:25:07;;;;;;;61.35;32.72;;;;;;;;;;4959001;29;20038;-77
2021/12/07 06:27:34;;;;;;;58.15;32.88;;;;;;;;;;4964351;28;20515;-77
2021/12/07 06:30:00;;;;;;;59.08;33.45;;;;;;;;;;4965604;29;20020;-77
2021/12/07 06:32:26;;;;;;;57.65;33.17;;;;;;;;;;4962167;29;20031;-77
2021/12/07 06:34:53;;;;;;;64.55;34.15;;;;;;;;;;4957216;29;20054;-77
2021/12/07 06:37:20;;;;;;;62.28;33.42;;;;;;;;;;4963903;29;20039;-78
2021/12/07 06:39:48;;;;;;;59.83;32.20;;;;;;;;;;4977119;28;20042;-78
2021/12/07 06:42:14;;;;;;;64.88;33.83;;;;;;;;;;4954594;29;20035;-74
2021/12/07 06:44:40;;;;;;;74.10;44.75;;;;;;;;;;4960981;28;20012;-75
2021/12/07 06:47:06;;;;;;;89.60;50.28;;;;;;;;;;4974690;29;20027;-76
2021/12/07 06:49:34;;;;;;;172.88;101.30;;;;;;;;;;4977665;28;20134;-72
2021/12/07 06:52:01;;;;;;;129.55;75.88;;;;;;;;;;4957982;28;20030;-77
2021/12/07 06:54:27;;;;;;;88.28;55.05;;;;;;;;;;4959013;28;20041;-76
2021/12/07 06:56:53;;;;;;;65.32;39.42;;;;;;;;;;4960109;28;20039;-76
2021/12/07 06:59:19;;;;;;;59.47;35.30;;;;;;;;;;4966902;28;20453;-76
2021/12/07 07:01:46;;;;;;;63.15;36.40;;;;;;;;;;4955661;29;20038;-76
2021/12/07 07:04:14;;;;;;;61.05;34.33;;;;;;;;;;4963528;29;20011;-77
2021/12/07 07:06:41;;;;;;;70.53;39.35;;;;;;;;;;4967486;28;20024;-75
2021/12/07 07:09:17;;;;;;;68.30;37.47;;;;;;;;;;4966481;28;20012;-75
2021/12/07 07:11:45;;;;;;;61.17;35.22;;;;;;;;;;4968175;28;20031;-76
2021/12/07 07:14:14;;;;;;;70.43;36.97;;;;;;;;;;4967268;28;20030;-74
2021/12/07 07:16:40;;;;;;;72.05;39.20;;;;;;;;;;4966599;28;20039;-76
2021/12/07 07:19:10;;;;;;;68.03;37.35;;;;;;;;;;4963379;29;20027;-76
2021/12/07 07:21:37;;;;;;;62.30;34.95;;;;;;;;;;4961628;29;20034;-76
2021/12/07 07:24:04;;;;;;;65.95;36.30;;;;;;;;;;4940931;29;20039;-78
2021/12/07 07:26:32;;;;;;;70.13;36.92;;;;;;;;;;4958141;28;20027;-79
2021/12/07 07:28:58;;;;;;;68.60;37.20;;;;;;;;;;4963711;29;20489;-76
2021/12/07 07:31:29;;;;;;;69.10;37.25;;;;;;;;;;4961081;29;20107;-78
2021/12/07 07:34:06;;;;;;;70.47;40.38;;;;;;;;;;4967127;29;20027;-76
2021/12/07 07:36:36;;;;;;;74.53;38.85;;;;;;;;;;4967166;29;20039;-77
2021/12/07 07:39:04;;;;;;;72.20;37.85;;;;;;;;;;4970070;29;20039;-76
2021/12/07 07:41:30;;;;;;;76.05;39.75;;;;;;;;;;4974188;29;20028;-76
2021/12/07 07:43:58;;;;;;;77.03;40.88;;;;;;;;;;4974323;28;20038;-75
2021/12/07 07:46:27;;;;;;;77.03;40.13;;;;;;;;;;4974389;29;20033;-75
2021/12/07 07:48:54;;;;;;;76.43;39.63;;;;;;;;;;4973847;29;20258;-76
2021/12/07 07:51:20;;;;;;;75.82;41.10;;;;;;;;;;4959039;29;20302;-73
2021/12/07 07:53:50;;;;;;;74.97;40.28;;;;;;;;;;4974135;28;20082;-79
2021/12/07 07:56:19;;;;;;;81.95;45.65;;;;;;;;;;4969529;28;20075;-77
2021/12/07 07:58:47;;;;;;;71.95;40.50;;;;;;;;;;4942256;29;20104;-77
2021/12/07 08:01:13;;;;;;;73.95;41.70;;;;;;;;;;4938077;29;20111;-77
2021/12/07 08:03:39;;;;;;;79.38;41.92;;;;;;;;;;4951584;29;20035;-79
2021/12/07 08:06:07;;;;;;;85.72;41.78;;;;;;;;;;4970118;29;20020;-77
2021/12/07 08:08:34;;;;;;;87.35;46.22;;;;;;;;;;4974648;29;20024;-77
2021/12/07 08:11:05;;;;;;;84.38;43.88;;;;;;;;;;4958272;29;20047;-79
2021/12/07 08:31:22;;;;;;;78.63;42.05;;;;;;;;;;5304926;23;20404;-75
2021/12/07 08:33:48;;;;;;;72.70;41.60;;;;;;;;;;4967887;29;20046;-75
2021/12/07 08:36:15;;;;;;;89.18;45.22;;;;;;;;;;4983599;28;20436;-76
2021/12/07 08:38:41;;;;;;;92.80;48.15;;;;;;;;;;4983777;28;20074;-79
2021/12/07 08:41:07;;;;;;;110.57;57.42;;;;;;;;;;4966374;28;20043;-77
2021/12/07 08:43:35;;;;;;;88.82;48.17;;;;;;;;;;4995325;28;20019;-77
2021/12/07 08:46:02;;;;;;;85.13;47.22;;;;;;;;;;4981776;28;20376;-76
2021/12/07 08:48:28;;;;;;;96.72;50.13;;;;;;;;;;4973542;28;20034;-75
2021/12/07 08:50:55;;;;;;;93.65;48.97;;;;;;;;;;4971118;28;20030;-76
2021/12/07 08:53:22;;;;;;;89.35;47.85;;;;;;;;;;4978728;28;20090;-76
2021/12/07 09:01:19;;;;;;;83.05;44.20;;;;;;;;;;5001633;28;20097;-76
2021/12/07 09:03:45;;;;;;;78.80;44.60;;;;;;;;;;4984460;28;20062;-76
2021/12/07 09:06:11;;;;;;;89.72;46.50;;;;;;;;;;4962904;28;20023;-75
2021/12/07 09:08:40;;;;;;;77.25;42.25;;;;;;;;;;4977400;28;20041;-74
2021/12/07 09:11:06;;;;;;;81.45;44.13;;;;;;;;;;4984742;28;20094;-76
2021/12/07 09:13:32;;;;;;;80.78;42.42;;;;;;;;;;4965989;28;20035;-73
2021/12/07 09:15:59;;;;;;;88.72;43.85;;;;;;;;;;4981581;28;20039;-76
2021/12/07 09:18:25;;;;;;;85.35;44.72;;;;;;;;;;4966394;28;20031;-77
2021/12/07 09:20:52;;;;;;;87.60;46.30;;;;;;;;;;4961190;28;20043;-77
2021/12/07 09:23:18;;;;;;;82.13;43.10;;;;;;;;;;4969099;28;20081;-75
2021/12/07 09:25:44;;;;;;;78.50;43.85;;;;;;;;;;4965293;28;20385;-77
2021/12/07 09:28:11;;;;;;;84.53;46.03;;;;;;;;;;4970007;28;20102;-78
2021/12/07 09:30:37;;;;;;;86.97;44.58;;;;;;;;;;4957186;28;20046;-76
2021/12/07 09:33:03;;;;;;;82.65;44.10;;;;;;;;;;4971588;28;20026;-76
2021/12/07 09:35:30;;;;;;;82.97;43.75;;;;;;;;;;4962085;28;20057;-77
2021/12/07 09:37:56;;;;;;;80.32;44.00;;;;;;;;;;4977524;28;20152;-77
2021/12/07 09:40:24;;;;;;;72.35;40.80;;;;;;;;;;4993861;28;20088;-76
2021/12/07 09:42:52;;;;;;;73.65;40.55;;;;;;;;;;4981895;28;20022;-76
2021/12/07 09:45:19;;;;;;;71.38;39.70;;;;;;;;;;4983144;28;20026;-77
2021/12/07 09:47:45;;;;;;;75.28;42.38;;;;;;;;;;4982034;28;20026;-76
2021/12/07 09:50:13;;;;;;;74.15;41.20;;;;;;;;;;4976980;28;20041;-75
2021/12/07 09:52:40;;;;;;;70.82;38.47;;;;;;;;;;4982934;28;20180;-77
2021/12/07 09:55:06;;;;;;;64.82;37.42;;;;;;;;;;4974246;28;20022;-77
2021/12/07 09:57:32;;;;;;;67.60;36.67;;;;;;;;;;4973619;28;20043;-78
2021/12/07 09:59:58;;;;;;;60.97;36.20;;;;;;;;;;4962643;28;20059;-77
2021/12/07 10:02:24;;;;;;;68.50;39.47;;;;;;;;;;4985059;28;20031;-78
2021/12/07 10:04:50;;;;;;;66.07;40.05;;;;;;;;;;4975731;28;20031;-76
2021/12/07 10:07:17;;;;;;;65.95;38.08;;;;;;;;;;4977185;28;20377;-76
2021/12/07 10:09:43;;;;;;;68.22;38.70;;;;;;;;;;4984226;28;20029;-77
2021/12/07 10:12:09;;;;;;;63.67;37.33;;;;;;;;;;4977862;28;20037;-76
2021/12/07 10:14:36;;;;;;;61.08;35.38;;;;;;;;;;4976869;28;20031;-76
2021/12/07 10:17:03;;;;;;;63.50;37.28;;;;;;;;;;4975609;28;20030;-74
2021/12/07 10:19:34;;;;;;;72.57;36.17;;;;;;;;;;4958631;28;20023;-75
2021/12/07 10:22:08;;;;;;;60.90;36.20;;;;;;;;;;4979979;28;20038;-75
2021/12/07 10:24:38;;;;;;;;;;;;;;;;;;4979126;28;20109;-74
2021/12/07 10:27:05;;;;;;;65.95;35.90;;;;;;;;;;4983522;28;20487;-75
2021/12/07 10:29:32;;;;;;;74.30;36.53;;;;;;;;;;4975021;28;20503;-75
2021/12/07 10:32:02;;;;;;;67.63;37.65;;;;;;;;;;4977081;28;20054;-75
2021/12/07 10:34:30;;;;;;;61.70;36.60;;;;;;;;;;4980465;28;20023;-74
2021/12/07 10:37:05;;;;;;;70.47;38.60;;;;;;;;;;4974511;28;20035;-74
2021/12/07 10:39:37;;;;;;;65.07;37.38;;;;;;;;;;4977267;28;20026;-76
2021/12/07 10:42:11;;;;;;;72.28;37.58;;;;;;;;;;4981678;28;20077;-75
2021/12/07 10:44:38;;;;;;;71.22;36.97;;;;;;;;;;4971942;28;20031;-76
2021/12/07 10:47:12;;;;;;;70.22;38.45;;;;;;;;;;4989564;28;20029;-73
2021/12/07 10:49:46;;;;;;;68.45;39.58;;;;;;;;;;4977664;28;20050;-76
2021/12/07 10:52:17;;;;;;;70.57;36.97;;;;;;;;;;4973336;28;20023;-76
2021/12/07 10:54:45;;;;;;;63.13;38.40;;;;;;;;;;4974796;28;20028;-76
2021/12/07 10:57:14;;;;;;;66.97;37.00;;;;;;;;;;4977461;28;20043;-75
2021/12/07 10:59:41;;;;;;;60.05;35.45;;;;;;;;;;4970594;28;20037;-74
2021/12/07 11:02:15;;;;;;;62.35;36.70;;;;;;;;;;4972136;28;20038;-76
2021/12/07 11:04:41;;;;;;;66.13;36.85;;;;;;;;;;4955293;28;20023;-76
2021/12/07 11:07:32;;;;;;;65.53;35.45;;;;;;;;;;4959261;28;20473;-73
2021/12/07 11:12:39;;;;;;;58.45;34.88;;;;;;;;;;4990733;28;20095;-73
2021/12/07 11:15:13;;;;;;;;;;;;;;;;;;4974096;28;20030;-75
2021/12/07 11:17:39;;;;;;;59.97;33.33;;;;;;;;;;4976016;28;19972;-75
2021/12/07 11:20:05;;;;;;;59.70;34.83;;;;;;;;;;4973097;28;20029;-75
2021/12/07 11:22:33;;;;;;;58.88;34.53;;;;;;;;;;4973815;28;20604;-75
2021/12/07 11:25:03;;;;;;;57.55;33.38;;;;;;;;;;4978503;28;20054;-78
2021/12/07 11:30:17;;;;;;;56.85;33.72;;;;;;;;;;4981920;28;20113;-77
2021/12/07 11:32:48;;;;;;;56.42;33.45;;;;;;;;;;4978421;28;20007;-79
2021/12/07 11:35:40;;;;;;;57.33;34.50;;;;;;;;;;4990980;28;20027;-75
2021/12/07 11:38:06;;;;;;;54.03;33.50;;;;;;;;;;4973840;28;20122;-73
2021/12/07 11:40:47;;;;;;;58.58;33.15;;;;;;;;;;4990206;28;20078;-74
2021/12/07 11:43:17;;;;;;;52.88;32.33;;;;;;;;;;5003684;28;20023;-76
2021/12/07 11:45:43;;;;;;;50.00;30.70;;;;;;;;;;4971362;28;20023;-78
2021/12/07 11:48:13;;;;;;;50.17;30.38;;;;;;;;;;4980534;28;20027;-76
2021/12/07 11:50:51;;;;;;;52.78;32.25;;;;;;;;;;4982263;28;20031;-77
2021/12/07 11:53:23;;;;;;;51.22;33.35;;;;;;;;;;4979265;28;20558;-78
2021/12/07 11:55:54;;;;;;;54.42;33.63;;;;;;;;;;4961606;28;20039;-76
2021/12/07 11:58:21;;;;;;;56.95;33.92;;;;;;;;;;4984685;28;20031;-77
2021/12/07 12:00:51;;;;;;;60.00;36.58;;;;;;;;;;4982789;28;20034;-77
2021/12/07 12:03:18;;;;;;;49.67;31.42;;;;;;;;;;4983273;28;20373;-75
2021/12/07 12:05:46;;;;;;;51.25;30.58;;;;;;;;;;4981148;28;20038;-78
2021/12/07 12:08:14;;;;;;;76.38;42.10;;;;;;;;;;4982418;28;20034;-78
2021/12/07 12:10:42;;;;;;;53.78;33.40;;;;;;;;;;4986731;28;20060;-78
2021/12/07 12:13:14;;;;;;;52.03;31.90;;;;;;;;;;4967338;28;20030;-76
2021/12/07 12:16:17;;;;;;;52.47;33.22;;;;;;;;;;4988651;28;20029;-76
2021/12/07 12:19:02;;;;;;;56.42;32.50;;;;;;;;;;4995959;28;20035;-77
2021/12/07 12:21:29;;;;;;;51.67;31.95;;;;;;;;;;4979608;28;20038;-77
2021/12/07 12:24:07;;;;;;;47.55;30.65;;;;;;;;;;4990155;28;20079;-78
2021/12/07 12:26:34;;;;;;;46.95;29.00;;;;;;;;;;4982307;28;20037;-77
2021/12/07 12:29:02;;;;;;;52.20;33.20;;;;;;;;;;4981889;28;20040;-75
2021/12/07 12:31:46;;;;;;;48.28;30.35;;;;;;;;;;4993074;28;20047;-78
2021/12/07 12:34:17;;;;;;;50.80;30.58;;;;;;;;;;4986739;28;20053;-79
2021/12/07 12:36:53;;;;;;;46.15;28.45;;;;;;;;;;4986770;28;20181;-78
2021/12/07 12:39:21;;;;;;;46.92;29.35;;;;;;;;;;4955776;28;20078;-75
2021/12/07 12:41:58;;;;;;;48.28;30.15;;;;;;;;;;4979910;28;20027;-74
2021/12/07 12:44:26;;;;;;;44.85;27.83;;;;;;;;;;4978654;28;20041;-76
2021/12/07 12:46:58;;;;;;;49.00;30.63;;;;;;;;;;4984951;28;20377;-75
2021/12/07 12:49:36;;;;;;;48.25;29.83;;;;;;;;;;4979073;28;20105;-77
2021/12/07 12:52:02;;;;;;;49.78;31.17;;;;;;;;;;4992789;28;20010;-76
2021/12/07 12:54:37;;;;;;;46.30;28.98;;;;;;;;;;4983685;28;20433;-76
2021/12/07 12:57:11;;;;;;;44.78;27.92;;;;;;;;;;4975716;28;20093;-77
2021/12/07 12:59:38;;;;;;;45.20;28.75;;;;;;;;;;4980809;28;20088;-77
2021/12/07 13:02:04;;;;;;;45.17;27.80;;;;;;;;;;4976659;28;20042;-76
2021/12/07 13:04:31;;;;;;;45.33;27.60;;;;;;;;;;4975816;28;20375;-75
2021/12/07 13:09:37;;;;;;;45.38;27.60;;;;;;;;;;4976560;28;20034;-76
2021/12/07 13:12:05;;;;;;;43.83;27.20;;;;;;;;;;4976179;28;20489;-79
2021/12/07 13:14:49;;;;;;;40.60;26.75;;;;;;;;;;4992659;28;20031;-76
2021/12/07 13:17:35;;;;;;;44.05;27.70;;;;;;;;;;4962460;28;20038;-76
2021/12/07 13:20:01;;;;;;;42.13;26.42;;;;;;;;;;4975824;28;20094;-77
2021/12/07 13:22:34;;;;;;;43.90;27.23;;;;;;;;;;4959083;28;20503;-77
2021/12/07 13:25:05;;;;;;;47.17;28.20;;;;;;;;;;4987930;28;20178;-76
2021/12/07 13:27:31;;;;;;;45.78;28.13;;;;;;;;;;4994108;28;20122;-76
2021/12/07 13:29:57;;;;;;;40.88;25.48;;;;;;;;;;4975562;28;20027;-77
2021/12/07 13:32:23;;;;;;;42.22;27.00;;;;;;;;;;4969672;28;20027;-76
2021/12/07 13:35:01;;;;;;;41.53;26.50;;;;;;;;;;4982916;28;20074;-79
2021/12/07 13:37:44;;;;;;;41.63;26.75;;;;;;;;;;4972874;28;20137;-77
2021/12/07 13:40:31;;;;;;;44.88;27.38;;;;;;;;;;4979571;28;20159;-76
2021/12/07 13:42:57;;;;;;;41.33;27.08;;;;;;;;;;4972422;28;20031;-77
2021/12/07 13:45:24;;;;;;;41.78;26.60;;;;;;;;;;4958657;28;20049;-74
2021/12/07 13:47:52;;;;;;;40.67;25.27;;;;;;;;;;4981831;28;20062;-77
2021/12/07 13:50:24;;;;;;;41.85;25.65;;;;;;;;;;4965371;28;20034;-79
2021/12/07 13:52:54;;;;;;;39.60;25.23;;;;;;;;;;4995396;28;20066;-79
2021/12/07 13:55:28;;;;;;;40.55;26.00;;;;;;;;;;4996375;28;20023;-77
2021/12/07 13:57:54;;;;;;;;;;;;;;;;;;5000177;28;20038;-76
2021/12/07 14:00:46;;;;;;;42.42;27.83;;;;;;;;;;4979847;28;19949;-75
2021/12/07 14:03:41;;;;;;;44.70;28.02;;;;;;;;;;4994199;28;20035;-75
2021/12/07 14:06:11;;;;;;;39.47;24.50;;;;;;;;;;4994603;28;20035;-77
2021/12/07 14:08:43;;;;;;;31.58;21.17;;;;;;;;;;4994721;28;20026;-76
2021/12/07 14:11:20;;;;;;;35.35;23.15;;;;;;;;;;4988106;28;20031;-78
2021/12/07 14:13:48;;;;;;;32.47;21.73;;;;;;;;;;4992695;28;20034;-78
2021/12/07 14:16:15;;;;;;;32.25;20.63;;;;;;;;;;4988359;28;20078;-76
2021/12/07 14:18:45;;;;;;;34.13;21.65;;;;;;;;;;4991656;28;20550;-75
2021/12/07 14:21:11;;;;;;;31.45;20.45;;;;;;;;;;4981676;28;20432;-76
2021/12/07 14:23:41;;;;;;;32.15;20.90;;;;;;;;;;4977113;28;20015;-75
2021/12/07 14:26:11;;;;;;;30.48;19.95;;;;;;;;;;4974538;28;20493;-76
2021/12/07 14:28:39;;;;;;;36.67;21.13;;;;;;;;;;4956462;28;20082;-77
2021/12/07 14:31:10;;;;;;;30.77;19.50;;;;;;;;;;4977189;28;20576;-74
2021/12/07 14:33:47;;;;;;;30.55;20.00;;;;;;;;;;4983501;28;20047;-74
2021/12/07 14:36:14;;;;;;;31.20;19.73;;;;;;;;;;4975197;28;20030;-76
2021/12/07 14:38:41;;;;;;;33.70;21.05;;;;;;;;;;4978172;28;20058;-75
2021/12/07 14:41:12;;;;;;;31.65;20.67;;;;;;;;;;4972997;28;20097;-77
2021/12/07 14:43:39;;;;;;;32.95;20.15;;;;;;;;;;4979849;28;20417;-74
2021/12/07 14:46:06;;;;;;;32.42;19.90;;;;;;;;;;4973227;28;20154;-76
2021/12/07 14:48:32;;;;;;;32.67;20.08;;;;;;;;;;4977313;28;20022;-75
2021/12/07 14:51:04;;;;;;;41.25;24.52;;;;;;;;;;4975011;28;20022;-76
2021/12/07 14:53:40;;;;;;;41.58;25.23;;;;;;;;;;4976082;28;20081;-77
2021/12/07 14:56:10;;;;;;;39.70;23.88;;;;;;;;;;4979224;28;20038;-75
2021/12/07 14:58:37;;;;;;;32.03;21.92;;;;;;;;;;4980390;28;20104;-75
2021/12/07 15:01:12;;;;;;;34.63;21.73;;;;;;;;;;4978324;28;20023;-76
2021/12/07 15:03:46;;;;;;;33.28;20.90;;;;;;;;;;4972429;28;20030;-76
2021/12/07 15:06:13;;;;;;;33.00;22.35;;;;;;;;;;4974317;28;20048;-77
2021/12/07 15:08:40;;;;;;;38.05;24.25;;;;;;;;;;4981124;28;20449;-78
2021/12/07 15:11:07;;;;;;;39.72;25.17;;;;;;;;;;4973299;28;20366;-74
2021/12/07 15:13:54;;;;;;;36.88;22.92;;;;;;;;;;4985060;28;20014;-79
2021/12/07 15:16:36;;;;;;;39.17;23.55;;;;;;;;;;4988131;28;20054;-77
2021/12/07 15:19:13;;;;;;;40.55;26.15;;;;;;;;;;4982364;28;20011;-79
2021/12/07 15:21:40;;;;;;;40.08;25.27;;;;;;;;;;4973807;28;20047;-78
2021/12/07 15:24:47;;;;;;;37.47;24.27;;;;;;;;;;4992605;28;20042;-78
2021/12/07 15:27:14;;;;;;;35.92;22.92;;;;;;;;;;4963755;28;20030;-74
2021/12/07 15:29:40;;;;;;;35.50;23.27;;;;;;;;;;4969664;28;20043;-76
2021/12/07 15:32:11;;;;;;;35.33;22.83;;;;;;;;;;4984447;28;20129;-77
2021/12/07 15:34:44;;;;;;;42.97;24.67;;;;;;;;;;4966517;28;20046;-73
2021/12/07 15:37:16;;;;;;;43.00;27.03;;;;;;;;;;4994681;28;20047;-78
2021/12/07 15:39:44;;;;;;;38.28;24.80;;;;;;;;;;4988946;28;20105;-74
2021/12/07 15:42:12;;;;;;;38.67;24.90;;;;;;;;;;4980784;28;20129;-75
2021/12/07 15:44:40;;;;;;;37.85;24.30;;;;;;;;;;4981893;28;20478;-76
2021/12/07 15:47:16;;;;;;;39.20;25.35;;;;;;;;;;4957409;28;20046;-77
2021/12/07 15:49:46;;;;;;;42.63;25.67;;;;;;;;;;4985639;28;20027;-76
2021/12/07 15:52:14;;;;;;;44.25;26.75;;;;;;;;;;4983317;28;20023;-77
2021/12/07 15:54:40;;;;;;;42.15;25.85;;;;;;;;;;4981377;28;20027;-76
2021/12/07 15:57:08;;;;;;;37.97;24.20;;;;;;;;;;4975923;28;20110;-74
2021/12/07 15:59:35;;;;;;;41.28;24.60;;;;;;;;;;4973700;28;20066;-76
2021/12/07 16:02:06;;;;;;;42.22;27.13;;;;;;;;;;4990812;28;20030;-77
2021/12/07 16:04:34;;;;;;;41.67;25.65;;;;;;;;;;4985697;28;20109;-77
2021/12/07 16:07:01;;;;;;;40.75;24.65;;;;;;;;;;4957106;28;20046;-77
2021/12/07 16:09:28;;;;;;;46.60;27.50;;;;;;;;;;4987875;28;20027;-77
2021/12/07 16:11:54;;;;;;;42.90;26.17;;;;;;;;;;4982111;28;20027;-75
2021/12/07 16:14:28;;;;;;;44.38;28.52;;;;;;;;;;4979112;28;20041;-78
2021/12/07 16:17:00;;;;;;;43.50;27.55;;;;;;;;;;4971270;28;20043;-79
2021/12/07 16:19:26;;;;;;;47.13;28.60;;;;;;;;;;4973514;28;20118;-75
2021/12/07 16:21:52;;;;;;;49.80;28.48;;;;;;;;;;4978248;28;20023;-75
2021/12/07 16:24:19;;;;;;;47.25;28.65;;;;;;;;;;4980375;28;20090;-73
2021/12/07 16:26:50;;;;;;;46.05;28.52;;;;;;;;;;4966675;28;20117;-78
2021/12/07 16:29:24;;;;;;;52.20;30.10;;;;;;;;;;4952894;28;20034;-78
2021/12/07 16:32:01;;;;;;;46.00;28.00;;;;;;;;;;4992962;28;20055;-77
2021/12/07 16:34:33;;;;;;;46.95;28.70;;;;;;;;;;4990758;28;20146;-76
2021/12/07 16:36:59;;;;;;;42.80;26.63;;;;;;;;;;4986226;28;20461;-74